createdAt,value
2022-08-22T00:00:11.819Z,2.97
2022-08-22T00:02:42.499Z,1.52
2022-08-22T00:02:48.332Z,1.58
2022-08-22T00:03:00.574Z,2.28
2022-08-22T00:06:11.644Z,3.20
2022-08-22T00:09:11.500Z,3.15
2022-08-22T00:11:49.023Z,3.08
2022-08-22T00:14:27.338Z,3.60
2022-08-22T00:17:05.139Z,3.63
2022-08-22T00:20:28.076Z,4.13
2022-08-22T00:23:17.218Z,2.80
2022-08-22T00:26:03.238Z,3.40
2022-08-22T00:28:51.584Z,3.40
2022-08-22T00:31:42.632Z,3.20
2022-08-22T00:34:23.783Z,3.33
2022-08-22T00:37:09.699Z,3.33
2022-08-22T00:39:45.023Z,3.25
2022-08-22T00:42:31.841Z,3.05
2022-08-22T00:45:13.811Z,2.95
2022-08-22T00:47:54.241Z,3.45
2022-08-22T00:50:39.988Z,3.13
2022-08-22T00:53:23.789Z,2.70
2022-08-22T00:56:15.229Z,2.83
2022-08-22T07:37:01.656Z,4.22
2022-08-22T07:39:40.580Z,3.88
2022-08-22T07:42:10.807Z,4.68
2022-08-22T07:45:05.498Z,4.10
2022-08-22T07:48:02.986Z,4.07
2022-08-22T07:50:37.583Z,4.10
2022-08-22T07:53:21.611Z,4.40
2022-08-22T07:55:49.990Z,4.70
2022-08-22T07:58:18.078Z,4.57
2022-08-22T08:00:46.867Z,4.32
2022-08-22T08:03:14.210Z,4.45
2022-08-22T08:05:44.227Z,4.55
2022-08-22T08:08:31.166Z,4.60
2022-08-22T08:11:00.557Z,4.80
2022-08-22T08:13:35.288Z,4.55
2022-08-22T08:16:04.975Z,4.72
2022-08-22T08:18:35.823Z,5.10
2022-08-22T08:21:09.211Z,4.72
2022-08-22T08:23:42.756Z,4.75
2022-08-22T08:26:20.008Z,4.38
2022-08-22T08:28:52.063Z,4.70
2022-08-22T08:31:32.136Z,4.78
2022-08-22T08:34:11.954Z,4.25
2022-08-22T08:37:12.772Z,4.40
2022-08-22T08:39:44.919Z,4.35
2022-08-22T08:42:58.150Z,4.50
2022-08-22T08:45:59.403Z,4.60
2022-08-22T08:48:49.944Z,4.20
2022-08-22T08:51:52.222Z,4.32
2022-08-22T08:54:34.412Z,4.03
2022-08-22T08:57:16.528Z,4.25
2022-08-22T09:00:12.280Z,4.40
2022-08-22T09:03:06.981Z,4.60
2022-08-22T09:06:02.154Z,4.22
2022-08-22T09:08:46.147Z,4.38
2022-08-22T09:11:40.895Z,3.88
2022-08-22T09:17:18.593Z,3.55
2022-08-22T09:20:17.974Z,3.60
2022-08-22T09:23:29.727Z,4.57
2022-08-22T09:26:18.012Z,4.50
2022-08-22T09:28:53.601Z,3.63
2022-08-22T09:31:33.095Z,3.75
2022-08-22T09:34:43.606Z,3.60
2022-08-22T09:37:26.919Z,3.50
2022-08-22T09:43:11.041Z,3.85
2022-08-22T09:45:47.242Z,3.83
2022-08-22T09:48:47.370Z,3.80
2022-08-22T09:51:34.802Z,2.63
2022-08-22T09:54:11.071Z,3.25
2022-08-22T09:56:57.082Z,3.30
2022-08-22T09:59:46.836Z,3.22
2022-08-22T10:02:37.231Z,2.38
2022-08-22T10:05:41.080Z,2.47
2022-08-22T10:08:33.067Z,2.95
2022-08-22T10:11:20.190Z,2.50
2022-08-22T10:14:00.669Z,2.40
2022-08-22T10:16:31.005Z,2.47
2022-08-22T10:19:24.647Z,2.85
2022-08-22T10:22:14.928Z,2.60
2022-08-22T10:24:58.619Z,2.30
2022-08-22T10:27:58.812Z,2.25
2022-08-22T10:30:33.418Z,2.50
2022-08-22T10:33:23.913Z,2.40
2022-08-22T10:35:51.000Z,2.47
2022-08-22T10:38:49.157Z,2.38
2022-08-22T10:41:23.273Z,2.63
2022-08-22T10:43:56.593Z,2.43
2022-08-22T10:46:49.199Z,2.17
2022-08-22T10:49:35.516Z,2.35
2022-08-22T10:52:20.371Z,2.70
2022-08-22T10:54:55.287Z,2.58
2022-08-22T10:57:25.314Z,2.30
2022-08-22T11:00:13.244Z,2.22
2022-08-22T11:02:47.283Z,2.00
2022-08-22T11:07:48.558Z,2.35
2022-08-22T11:10:34.950Z,2.22
2022-08-22T11:13:26.453Z,2.28
2022-08-22T11:16:04.201Z,1.95
2022-08-22T11:19:03.061Z,1.60
2022-08-22T11:21:47.780Z,1.70
2022-08-22T11:24:53.902Z,1.80
2022-08-22T11:27:39.949Z,2.00
2022-08-22T11:33:04.722Z,1.80
2022-08-22T11:35:50.563Z,1.90
2022-08-22T11:38:36.186Z,1.92
2022-08-22T11:41:12.825Z,2.10
2022-08-22T11:43:53.769Z,1.90
2022-08-22T11:46:29.026Z,1.98
2022-08-22T11:49:27.274Z,2.00
2022-08-22T11:52:12.171Z,2.08
2022-08-22T11:55:19.680Z,2.13
2022-08-22T11:57:57.558Z,2.10
2022-08-22T12:00:32.490Z,2.28
2022-08-22T12:03:19.614Z,2.20
2022-08-22T12:06:00.389Z,1.70
2022-08-22T12:08:30.491Z,2.33
2022-08-22T12:11:06.142Z,1.90
2022-08-22T12:14:18.342Z,2.13
2022-08-22T12:16:48.769Z,2.33
2022-08-22T12:19:48.923Z,2.10
2022-08-22T12:22:58.753Z,1.98
2022-08-22T12:25:34.743Z,2.10
2022-08-22T12:28:39.958Z,1.77
2022-08-22T12:31:38.131Z,1.92
2022-08-22T12:34:23.697Z,1.90
2022-08-22T12:37:03.658Z,2.40
2022-08-22T12:40:01.159Z,2.28
2022-08-22T12:43:06.503Z,2.03
2022-08-22T12:45:42.611Z,1.90
2022-08-22T12:48:36.711Z,2.17
2022-08-22T12:51:33.546Z,2.25
2022-08-22T12:54:27.827Z,2.10
2022-08-22T12:57:23.745Z,1.85
2022-08-22T12:59:58.131Z,1.98
2022-08-22T13:04:59.945Z,2.10
2022-08-22T13:07:35.904Z,2.22
2022-08-22T13:10:14.947Z,1.90
2022-08-22T13:12:48.638Z,1.92
2022-08-22T13:15:41.937Z,2.20
2022-08-22T13:18:30.286Z,2.20
2022-08-22T13:21:02.002Z,1.90
2022-08-22T13:23:39.835Z,2.30
2022-08-22T13:26:11.653Z,2.00
2022-08-22T13:29:15.265Z,2.00
2022-08-22T13:31:44.572Z,2.15
2022-08-22T13:34:22.879Z,2.00
2022-08-22T13:36:55.450Z,1.83
2022-08-22T13:39:30.279Z,2.25
2022-08-22T13:42:00.605Z,2.05
2022-08-22T13:44:40.240Z,1.88
2022-08-22T13:47:31.601Z,1.65
2022-08-22T13:50:19.390Z,2.10
2022-08-22T13:52:58.518Z,2.00
2022-08-22T13:55:55.269Z,1.90
2022-08-22T13:58:40.350Z,1.90
2022-08-22T14:01:15.174Z,2.13
2022-08-22T14:03:48.640Z,2.05
2022-08-22T14:06:41.193Z,1.83
2022-08-22T14:09:29.563Z,1.88
2022-08-22T14:12:27.529Z,2.17
2022-08-22T14:15:03.506Z,2.05
2022-08-22T14:17:42.909Z,1.85
2022-08-22T14:20:10.982Z,1.85
2022-08-22T14:22:40.804Z,1.90
2022-08-22T14:25:17.066Z,1.90
2022-08-22T14:27:51.120Z,2.30
2022-08-22T14:30:21.932Z,2.13
2022-08-22T14:33:22.656Z,2.00
2022-08-22T14:35:57.287Z,1.52
2022-08-22T14:38:35.297Z,2.03
2022-08-22T14:41:06.742Z,1.70
2022-08-22T14:43:51.092Z,1.65
2022-08-22T14:46:27.772Z,2.08
2022-08-22T14:49:14.468Z,1.85
2022-08-22T14:51:50.793Z,2.15
2022-08-22T14:54:22.220Z,1.80
2022-08-22T14:56:51.692Z,1.80
2022-08-22T14:59:40.340Z,1.83
2022-08-22T15:02:26.438Z,1.63
2022-08-22T15:04:55.112Z,1.77
2022-08-22T15:07:32.312Z,1.85
2022-08-22T15:10:06.216Z,2.22
2022-08-22T15:12:40.105Z,1.95
2022-08-22T15:15:26.215Z,1.85
2022-08-22T15:17:53.672Z,1.85
2022-08-22T15:20:35.656Z,1.80
2022-08-22T15:23:16.535Z,1.80
2022-08-22T15:25:47.051Z,1.80
2022-08-22T15:28:20.205Z,1.80
2022-08-22T15:33:26.017Z,1.60
2022-08-22T15:36:15.823Z,1.98
2022-08-22T15:38:48.470Z,1.75
2022-08-22T15:41:36.510Z,1.83
2022-08-22T15:44:06.726Z,1.52
2022-08-22T15:46:39.570Z,1.67
2022-08-22T15:49:11.700Z,1.80
2022-08-22T15:52:03.409Z,1.80
2022-08-22T15:54:57.050Z,1.60
2022-08-22T15:57:32.310Z,1.60
2022-08-22T16:00:20.985Z,1.75
2022-08-22T16:02:59.845Z,1.45
2022-08-22T16:05:41.380Z,1.60
2022-08-22T16:08:20.722Z,1.65
2022-08-22T16:10:53.593Z,1.88
2022-08-22T16:16:31.106Z,1.48
2022-08-22T16:18:57.943Z,1.83
2022-08-22T16:21:25.504Z,2.13
2022-08-22T16:23:56.863Z,1.63
2022-08-22T16:26:29.437Z,1.70
2022-08-22T16:29:21.074Z,1.73
2022-08-22T16:31:47.921Z,1.85
2022-08-22T16:34:17.912Z,1.92
2022-08-22T16:37:02.986Z,1.77
2022-08-22T16:39:38.796Z,1.73
2022-08-22T16:42:15.726Z,1.95
2022-08-22T16:44:55.144Z,1.95
2022-08-22T16:47:30.074Z,2.00
2022-08-22T16:49:59.887Z,1.73
2022-08-22T16:52:26.874Z,1.95
2022-08-22T16:55:03.862Z,1.98
2022-08-22T16:58:06.147Z,1.90
2022-08-22T17:00:58.061Z,1.95
2022-08-22T17:03:45.750Z,1.90
2022-08-22T17:06:32.566Z,2.08
2022-08-22T17:09:30.326Z,2.28
2022-08-22T17:12:15.306Z,1.75
2022-08-22T17:15:17.774Z,1.98
2022-08-22T17:18:11.876Z,2.17
2022-08-22T17:21:17.200Z,1.80
2022-08-22T17:23:55.744Z,1.80
2022-08-22T17:26:54.302Z,1.90
2022-08-22T17:29:49.317Z,1.90
2022-08-22T17:32:21.876Z,1.83
2022-08-22T17:35:19.039Z,1.77
2022-08-22T17:38:17.632Z,1.98
2022-08-22T17:41:11.602Z,1.80
2022-08-22T17:44:02.711Z,1.65
2022-08-22T17:46:50.843Z,1.70
2022-08-22T17:49:29.786Z,1.95
2022-08-22T17:52:09.612Z,2.05
2022-08-22T17:54:48.139Z,1.70
2022-08-22T17:57:30.551Z,1.50
2022-08-22T18:00:15.302Z,1.85
2022-08-22T18:03:01.168Z,1.80
2022-08-22T18:05:59.385Z,1.95
2022-08-22T18:09:13.266Z,1.85
2022-08-22T18:11:57.377Z,1.65
2022-08-22T18:14:41.706Z,1.95
2022-08-22T18:17:41.542Z,1.65
2022-08-22T18:20:33.155Z,1.88
2022-08-22T18:23:34.408Z,1.98
2022-08-22T18:26:28.585Z,2.10
2022-08-22T18:29:16.313Z,1.98
2022-08-22T18:31:54.721Z,1.92
2022-08-22T18:34:40.869Z,2.03
2022-08-22T18:37:43.086Z,2.13
2022-08-22T18:40:27.155Z,2.20
2022-08-22T18:45:45.914Z,2.00
2022-08-22T18:48:54.405Z,2.53
2022-08-22T18:51:35.104Z,2.47
2022-08-22T18:54:05.336Z,2.50
2022-08-22T18:56:38.294Z,2.38
2022-08-22T18:59:16.842Z,2.20
2022-08-22T19:01:56.286Z,2.50
2022-08-22T19:04:44.091Z,1.95
2022-08-22T19:07:41.072Z,2.90
2022-08-22T19:10:32.250Z,2.85
2022-08-22T19:13:26.329Z,2.63
2022-08-22T19:16:25.939Z,3.50
2022-08-22T19:19:01.078Z,1.80
2022-08-22T19:21:53.316Z,2.25
2022-08-22T19:24:20.288Z,2.45
2022-08-22T19:26:51.413Z,1.95
2022-08-22T19:29:18.143Z,2.40
2022-08-22T19:31:52.679Z,2.63
2022-08-22T19:34:34.566Z,2.33
2022-08-22T19:37:30.509Z,1.92
2022-08-22T19:40:45.462Z,2.47
2022-08-22T19:43:24.103Z,2.03
2022-08-22T19:45:54.401Z,2.50
2022-08-22T19:48:46.739Z,2.67
2022-08-22T19:51:19.518Z,2.30
2022-08-22T19:53:56.227Z,2.38
2022-08-22T19:56:37.884Z,2.45
2022-08-22T19:59:20.601Z,2.30
2022-08-22T20:02:14.685Z,2.33
2022-08-22T20:04:48.390Z,2.35
2022-08-22T20:07:25.669Z,2.40
2022-08-22T20:10:25.295Z,2.20
2022-08-22T20:13:07.590Z,2.03
2022-08-22T20:16:03.610Z,2.50
2022-08-22T20:18:55.621Z,2.60
2022-08-22T20:21:53.081Z,2.65
2022-08-22T20:24:43.094Z,2.47
2022-08-22T20:27:31.930Z,2.17
2022-08-22T20:30:10.983Z,2.35
2022-08-22T20:32:45.797Z,2.60
2022-08-22T20:35:21.588Z,2.58
2022-08-22T20:38:06.765Z,2.38
2022-08-22T20:41:11.753Z,2.67
2022-08-22T20:43:52.999Z,2.35
2022-08-22T20:46:43.767Z,2.30
2022-08-22T20:49:31.175Z,2.50
2022-08-22T20:52:00.372Z,2.33
2022-08-22T20:54:31.584Z,2.30
2022-08-22T20:57:10.089Z,2.50
2022-08-22T20:59:42.087Z,2.65
2022-08-22T21:02:20.077Z,2.40
2022-08-22T21:04:56.877Z,2.58
2022-08-22T21:07:29.173Z,2.50
2022-08-22T21:10:33.522Z,2.28
2022-08-22T21:13:16.791Z,2.70
2022-08-22T21:15:55.383Z,3.00
2022-08-22T21:18:35.071Z,2.63
2022-08-22T21:21:22.133Z,2.30
2022-08-22T21:24:04.770Z,2.53
2022-08-22T21:26:38.448Z,2.60
2022-08-22T21:29:08.144Z,2.78
